N244BR CYXU-KDTW
Flight info
| Callsign | N244BR |
|---|---|
| Flight time | 0h 30m |
| Altitude | 4000 |
| Route | CYXU KDTW DIRECT |
| Aircraft | C25C/L-VGD/A |
Departure
| Time | 2026-04-22 03:16 |
|---|---|
| Airport | London International Airport (CYXU) |
Arrival
| Time | 2026-04-22 03:46 |
|---|---|
| Airport | Detroit Metropolitan Wayne County Airport (KDTW) |
| Time | Latitude | Longitude | Altitude | Speed | Heading |
|---|---|---|---|---|---|
| 2026-04-22 03:03 | 43.03575 | -81.16200 | 906 ft | 0 kts | 79° |
| 2026-04-22 03:07 | 43.03578 | -81.16195 | 906 ft | 2 kts | 49° |
| 2026-04-22 03:07 | 43.03598 | -81.16185 | 907 ft | 0 kts | 0° |
| 2026-04-22 03:10 | 43.03599 | -81.16185 | 907 ft | 0 kts | 358° |
| 2026-04-22 03:11 | 43.03601 | -81.16185 | 907 ft | 2 kts | 355° |
| 2026-04-22 03:11 | 43.03621 | -81.16187 | 908 ft | 8 kts | 6° |
| 2026-04-22 03:11 | 43.03651 | -81.16123 | 908 ft | 13 kts | 77° |
| 2026-04-22 03:11 | 43.03674 | -81.15952 | 907 ft | 24 kts | 81° |
| 2026-04-22 03:12 | 43.03697 | -81.15796 | 905 ft | 13 kts | 78° |
| 2026-04-22 03:12 | 43.03770 | -81.15771 | 906 ft | 7 kts | 323° |
| 2026-04-22 03:12 | 43.03805 | -81.15814 | 907 ft | 6 kts | 318° |
| 2026-04-22 03:13 | 43.03855 | -81.15873 | 909 ft | 11 kts | 319° |
| 2026-04-22 03:13 | 43.03916 | -81.15948 | 909 ft | 12 kts | 320° |
| 2026-04-22 03:13 | 43.03978 | -81.16011 | 911 ft | 10 kts | 334° |
| 2026-04-22 03:13 | 43.04033 | -81.16015 | 914 ft | 6 kts | 4° |
| 2026-04-22 03:14 | 43.04067 | -81.16011 | 916 ft | 5 kts | 9° |
| 2026-04-22 03:14 | 43.04104 | -81.15994 | 917 ft | 4 kts | 33° |
| 2026-04-22 03:14 | 43.04105 | -81.15993 | 917 ft | 0 kts | 34° |
| 2026-04-22 03:15 | 43.04135 | -81.15937 | 917 ft | 18 kts | 76° |
| 2026-04-22 03:15 | 43.03983 | -81.15711 | 912 ft | 64 kts | 139° |
| 2026-04-22 03:15 | 43.03371 | -81.14966 | 918 ft | 166 kts | 138° |
| 2026-04-22 03:15 | 43.02358 | -81.13740 | 1413 ft | 217 kts | 140° |
| 2026-04-22 03:16 | 43.01118 | -81.12292 | 2136 ft | 243 kts | 140° |
| 2026-04-22 03:16 | 42.99812 | -81.10766 | 2651 ft | 249 kts | 140° |
| 2026-04-22 03:16 | 42.98477 | -81.09294 | 3455 ft | 244 kts | 142° |
| 2026-04-22 03:16 | 42.97142 | -81.07928 | 4312 ft | 236 kts | 145° |
| 2026-04-22 03:17 | 42.95777 | -81.06648 | 4994 ft | 238 kts | 146° |
| 2026-04-22 03:17 | 42.94320 | -81.05550 | 5657 ft | 237 kts | 160° |
| 2026-04-22 03:17 | 42.92726 | -81.05075 | 6269 ft | 235 kts | 174° |
| 2026-04-22 03:17 | 42.91086 | -81.05137 | 6185 ft | 237 kts | 190° |
| 2026-04-22 03:18 | 42.89520 | -81.05807 | 6109 ft | 237 kts | 206° |
| 2026-04-22 03:18 | 42.88158 | -81.07035 | 6109 ft | 234 kts | 222° |
| 2026-04-22 03:18 | 42.87116 | -81.08717 | 6106 ft | 231 kts | 236° |
| 2026-04-22 03:18 | 42.86261 | -81.10602 | 5982 ft | 236 kts | 242° |
| 2026-04-22 03:19 | 42.85531 | -81.12587 | 5955 ft | 233 kts | 244° |
| 2026-04-22 03:19 | 42.84840 | -81.14576 | 5941 ft | 231 kts | 245° |
| 2026-04-22 03:19 | 42.84154 | -81.16561 | 5920 ft | 231 kts | 245° |
| 2026-04-22 03:19 | 42.83477 | -81.18538 | 5912 ft | 231 kts | 245° |
| 2026-04-22 03:20 | 42.82795 | -81.20519 | 5913 ft | 233 kts | 245° |
| 2026-04-22 03:20 | 42.82054 | -81.22670 | 5920 ft | 258 kts | 245° |
| 2026-04-22 03:20 | 42.81298 | -81.24871 | 5924 ft | 256 kts | 245° |
| 2026-04-22 03:20 | 42.80547 | -81.27062 | 5926 ft | 255 kts | 245° |
| 2026-04-22 03:21 | 42.79797 | -81.29245 | 5923 ft | 254 kts | 245° |
| 2026-04-22 03:21 | 42.79052 | -81.31425 | 5926 ft | 253 kts | 245° |
| 2026-04-22 03:21 | 42.78308 | -81.33596 | 5925 ft | 253 kts | 245° |
| 2026-04-22 03:21 | 42.77567 | -81.35767 | 5926 ft | 252 kts | 245° |
| 2026-04-22 03:22 | 42.76826 | -81.37925 | 5925 ft | 252 kts | 245° |
| 2026-04-22 03:22 | 42.76129 | -81.40107 | 5926 ft | 251 kts | 248° |
| 2026-04-22 03:22 | 42.75471 | -81.42301 | 5924 ft | 250 kts | 248° |
| 2026-04-22 03:22 | 42.74822 | -81.44495 | 5924 ft | 250 kts | 248° |
| 2026-04-22 03:23 | 42.74175 | -81.46687 | 5925 ft | 250 kts | 248° |
| 2026-04-22 03:23 | 42.73528 | -81.48879 | 5927 ft | 250 kts | 248° |
| 2026-04-22 03:23 | 42.72881 | -81.51073 | 5921 ft | 250 kts | 248° |
| 2026-04-22 03:23 | 42.72234 | -81.53262 | 5921 ft | 249 kts | 248° |
| 2026-04-22 03:24 | 42.71589 | -81.55450 | 5923 ft | 250 kts | 249° |
| 2026-04-22 03:24 | 42.70954 | -81.57641 | 5922 ft | 250 kts | 250° |
| 2026-04-22 03:24 | 42.70384 | -81.59870 | 5925 ft | 249 kts | 251° |
| 2026-04-22 03:24 | 42.69825 | -81.62071 | 5924 ft | 249 kts | 251° |
| 2026-04-22 03:25 | 42.69270 | -81.64308 | 5920 ft | 250 kts | 251° |
| 2026-04-22 03:25 | 42.68713 | -81.66546 | 5925 ft | 250 kts | 251° |
| 2026-04-22 03:25 | 42.68152 | -81.68788 | 5923 ft | 250 kts | 251° |
| 2026-04-22 03:25 | 42.67595 | -81.71024 | 5924 ft | 250 kts | 251° |
| 2026-04-22 03:26 | 42.67038 | -81.73257 | 5925 ft | 250 kts | 251° |
| 2026-04-22 03:26 | 42.66482 | -81.75492 | 5923 ft | 250 kts | 252° |
| 2026-04-22 03:26 | 42.65927 | -81.77733 | 5925 ft | 250 kts | 251° |
| 2026-04-22 03:26 | 42.65372 | -81.79972 | 5928 ft | 250 kts | 251° |
| 2026-04-22 03:27 | 42.64812 | -81.82212 | 5916 ft | 250 kts | 251° |
| 2026-04-22 03:27 | 42.64260 | -81.84449 | 5916 ft | 249 kts | 251° |
| 2026-04-22 03:27 | 42.63705 | -81.86676 | 5916 ft | 249 kts | 251° |
| 2026-04-22 03:27 | 42.63156 | -81.88902 | 5918 ft | 249 kts | 251° |
| 2026-04-22 03:28 | 42.62607 | -81.91130 | 5918 ft | 249 kts | 251° |
| 2026-04-22 03:28 | 42.62055 | -81.93362 | 5913 ft | 250 kts | 251° |
| 2026-04-22 03:28 | 42.61503 | -81.95588 | 5916 ft | 249 kts | 251° |
| 2026-04-22 03:28 | 42.60956 | -81.97818 | 5914 ft | 248 kts | 251° |
| 2026-04-22 03:29 | 42.60409 | -82.00040 | 5912 ft | 248 kts | 252° |
| 2026-04-22 03:29 | 42.59865 | -82.02254 | 5912 ft | 247 kts | 251° |
| 2026-04-22 03:29 | 42.59321 | -82.04466 | 5910 ft | 247 kts | 252° |
| 2026-04-22 03:29 | 42.58744 | -82.06660 | 5912 ft | 247 kts | 250° |
| 2026-04-22 03:30 | 42.58146 | -82.08839 | 5911 ft | 247 kts | 249° |
| 2026-04-22 03:30 | 42.57526 | -82.11000 | 5911 ft | 246 kts | 249° |
| 2026-04-22 03:30 | 42.56898 | -82.13172 | 5910 ft | 246 kts | 249° |
| 2026-04-22 03:30 | 42.56276 | -82.15331 | 5907 ft | 246 kts | 249° |
| 2026-04-22 03:31 | 42.55653 | -82.17494 | 5909 ft | 246 kts | 249° |
| 2026-04-22 03:31 | 42.55028 | -82.19654 | 5912 ft | 246 kts | 249° |
| 2026-04-22 03:31 | 42.54405 | -82.21812 | 5911 ft | 246 kts | 249° |
| 2026-04-22 03:31 | 42.53785 | -82.23974 | 5912 ft | 246 kts | 249° |
| 2026-04-22 03:32 | 42.53159 | -82.26138 | 5912 ft | 246 kts | 249° |
| 2026-04-22 03:32 | 42.52538 | -82.28303 | 5912 ft | 247 kts | 249° |
| 2026-04-22 03:32 | 42.51913 | -82.30469 | 5910 ft | 246 kts | 249° |
| 2026-04-22 03:32 | 42.51294 | -82.32634 | 5911 ft | 247 kts | 249° |
| 2026-04-22 03:33 | 42.50679 | -82.34769 | 5909 ft | 247 kts | 249° |
| 2026-04-22 03:33 | 42.50051 | -82.36965 | 5912 ft | 246 kts | 249° |
| 2026-04-22 03:33 | 42.49437 | -82.39098 | 5911 ft | 246 kts | 249° |
| 2026-04-22 03:33 | 42.48820 | -82.41264 | 5911 ft | 246 kts | 249° |
| 2026-04-22 03:34 | 42.48201 | -82.43426 | 5910 ft | 246 kts | 249° |
| 2026-04-22 03:34 | 42.47582 | -82.45587 | 5911 ft | 246 kts | 249° |
| 2026-04-22 03:34 | 42.46967 | -82.47748 | 5910 ft | 246 kts | 249° |
| 2026-04-22 03:34 | 42.46347 | -82.49911 | 5910 ft | 246 kts | 249° |
| 2026-04-22 03:35 | 42.45732 | -82.52073 | 5910 ft | 246 kts | 249° |
| 2026-04-22 03:35 | 42.45116 | -82.54233 | 5910 ft | 246 kts | 249° |
| 2026-04-22 03:35 | 42.44500 | -82.56393 | 5910 ft | 246 kts | 249° |
| 2026-04-22 03:35 | 42.43888 | -82.58553 | 5910 ft | 246 kts | 249° |
| 2026-04-22 03:36 | 42.43272 | -82.60709 | 5910 ft | 246 kts | 249° |
| 2026-04-22 03:36 | 42.42661 | -82.62867 | 5910 ft | 246 kts | 249° |
| 2026-04-22 03:36 | 42.42047 | -82.65025 | 5910 ft | 246 kts | 249° |
| 2026-04-22 03:36 | 42.41433 | -82.67183 | 5910 ft | 245 kts | 249° |
| 2026-04-22 03:37 | 42.40825 | -82.69337 | 5909 ft | 245 kts | 249° |
| 2026-04-22 03:37 | 42.40211 | -82.71495 | 5909 ft | 245 kts | 249° |
| 2026-04-22 03:37 | 42.39602 | -82.73651 | 5909 ft | 245 kts | 249° |
| 2026-04-22 03:37 | 42.38993 | -82.75805 | 5909 ft | 245 kts | 249° |
| 2026-04-22 03:38 | 42.38382 | -82.77961 | 5909 ft | 245 kts | 249° |
| 2026-04-22 03:38 | 42.37775 | -82.80118 | 5909 ft | 245 kts | 249° |
| 2026-04-22 03:38 | 42.37164 | -82.82273 | 5909 ft | 245 kts | 249° |
| 2026-04-22 03:38 | 42.36557 | -82.84430 | 5909 ft | 245 kts | 249° |
| 2026-04-22 03:39 | 42.35949 | -82.86588 | 5909 ft | 245 kts | 249° |
| 2026-04-22 03:39 | 42.35340 | -82.88744 | 5909 ft | 245 kts | 249° |
| 2026-04-22 03:39 | 42.34736 | -82.90898 | 5909 ft | 245 kts | 249° |
| 2026-04-22 03:39 | 42.34128 | -82.93053 | 5909 ft | 245 kts | 249° |
| 2026-04-22 03:40 | 42.33520 | -82.95219 | 5915 ft | 248 kts | 249° |
| 2026-04-22 03:40 | 42.32909 | -82.97396 | 5915 ft | 248 kts | 249° |
| 2026-04-22 03:40 | 42.32293 | -82.99584 | 5915 ft | 250 kts | 249° |
| 2026-04-22 03:40 | 42.31677 | -83.01781 | 5916 ft | 250 kts | 249° |
| 2026-04-22 03:41 | 42.31061 | -83.03975 | 5918 ft | 250 kts | 249° |
| 2026-04-22 03:41 | 42.30378 | -83.06119 | 5870 ft | 248 kts | 240° |
| 2026-04-22 03:41 | 42.29342 | -83.08013 | 5566 ft | 254 kts | 230° |
| 2026-04-22 03:41 | 42.28200 | -83.09793 | 5582 ft | 246 kts | 229° |
| 2026-04-22 03:42 | 42.27083 | -83.11462 | 5678 ft | 236 kts | 230° |
| 2026-04-22 03:42 | 42.26276 | -83.13355 | 5737 ft | 231 kts | 250° |
| 2026-04-22 03:42 | 42.25980 | -83.14705 | 5873 ft | 223 kts | 258° |
| 2026-04-22 03:42 | 42.25840 | -83.16781 | 5872 ft | 222 kts | 272° |
| 2026-04-22 03:43 | 42.26099 | -83.18830 | 5844 ft | 224 kts | 285° |
| 2026-04-22 03:43 | 42.26682 | -83.20799 | 5716 ft | 229 kts | 294° |
| 2026-04-22 03:43 | 42.27334 | -83.22791 | 5456 ft | 238 kts | 291° |
| 2026-04-22 03:43 | 42.27880 | -83.24965 | 5117 ft | 248 kts | 284° |
| 2026-04-22 03:44 | 42.28228 | -83.27151 | 5422 ft | 228 kts | 280° |
| 2026-04-22 03:44 | 42.28330 | -83.29231 | 4828 ft | 221 kts | 264° |
| 2026-04-22 03:44 | 42.27861 | -83.31237 | 3365 ft | 233 kts | 240° |
| 2026-04-22 03:44 | 42.26766 | -83.32761 | 2353 ft | 228 kts | 207° |
| 2026-04-22 03:45 | 42.25384 | -83.33479 | 1584 ft | 201 kts | 200° |
| 2026-04-22 03:45 | 42.24201 | -83.34192 | 1006 ft | 177 kts | 207° |
| 2026-04-22 03:45 | 42.23198 | -83.34935 | 705 ft | 152 kts | 208° |
| 2026-04-22 03:45 | 42.22361 | -83.35561 | 643 ft | 111 kts | 208° |
| 2026-04-22 03:46 | 42.21926 | -83.35883 | 640 ft | 49 kts | 209° |
| 2026-04-22 03:46 | 42.21823 | -83.35909 | 641 ft | 1 kts | 154° |
| 2026-04-22 03:46 | 42.21815 | -83.35822 | 640 ft | 0 kts | 81° |
| 2026-04-22 03:47 | 42.21815 | -83.35821 | 640 ft | 1 kts | 81° |
| 2026-04-22 03:47 | 42.21818 | -83.35688 | 641 ft | 25 kts | 89° |
| 2026-04-22 03:48 | 42.21819 | -83.35639 | 642 ft | 0 kts | 89° |
| 2026-04-22 03:48 | 42.21819 | -83.35631 | 642 ft | 0 kts | 90° |
| 2026-04-22 03:48 | 42.21819 | -83.35667 | 642 ft | 8 kts | 90° |
| 2026-04-22 03:48 | 42.21819 | -83.35711 | 641 ft | 3 kts | 90° |
| 2026-04-22 03:49 | 42.21818 | -83.35669 | 642 ft | 6 kts | 92° |
| 2026-04-22 03:49 | 42.21819 | -83.35596 | 642 ft | 8 kts | 89° |
| 2026-04-22 03:49 | 42.21819 | -83.35518 | 642 ft | 8 kts | 99° |
| 2026-04-22 03:49 | 42.21820 | -83.35444 | 642 ft | 8 kts | 86° |
| 2026-04-22 03:50 | 42.21822 | -83.35409 | 642 ft | 10 kts | 86° |
| 2026-04-22 03:50 | 42.21743 | -83.35334 | 640 ft | 19 kts | 184° |
| 2026-04-22 03:50 | 42.21643 | -83.35244 | 642 ft | 17 kts | 138° |
| 2026-04-22 03:50 | 42.21559 | -83.35145 | 643 ft | 16 kts | 134° |
| 2026-04-22 03:51 | 42.21545 | -83.35129 | 643 ft | 0 kts | 161° |
| 2026-04-22 03:51 | 42.21513 | -83.35130 | 643 ft | 6 kts | 192° |
| 2026-04-22 03:51 | 42.21473 | -83.35154 | 643 ft | 6 kts | 207° |
| 2026-04-22 03:52 | 42.21431 | -83.35183 | 643 ft | 7 kts | 204° |
| 2026-04-22 03:52 | 42.21384 | -83.35212 | 643 ft | 8 kts | 208° |
| 2026-04-22 03:52 | 42.21335 | -83.35245 | 643 ft | 7 kts | 218° |
| 2026-04-22 03:52 | 42.21307 | -83.35262 | 643 ft | 4 kts | 197° |
| 2026-04-22 03:53 | 42.21276 | -83.35279 | 643 ft | 5 kts | 206° |
| 2026-04-22 03:53 | 42.21237 | -83.35309 | 643 ft | 7 kts | 206° |
| 2026-04-22 03:53 | 42.21185 | -83.35348 | 643 ft | 7 kts | 240° |
| 2026-04-22 03:53 | 42.21191 | -83.35413 | 643 ft | 7 kts | 283° |
| 2026-04-22 03:54 | 42.21212 | -83.35448 | 643 ft | 5 kts | 309° |
| 2026-04-22 03:54 | 42.21217 | -83.35459 | 643 ft | 0 kts | 301° |